»·PEaware :: SWA6179 KSFO-KSAN

SWA6179 :: KSFO-KSAN

FLIGHT INFORMATION

Flight Status: Arrived
Operator:
Southwest Airlines
More flights by this operator :: More flights under this callsign
Pilot: Alfredo R. (12181)
Aircraft: BOEING 737-300
(B733)
More flights by this aircraft type
Origin: KSFO San Francisco Intl
United States
Destination: KSAN San Diego Intl-Lindbergh
United States
More flights between these airports :: More routes between these airports
Route: OFFSH1 MCKEY LAX COMIX1
File this flight plan on PilotEdge
Remarks:
Altitude:
(Current/Filed)
37,000ft
Speed:
(Current/Filed)
450kts
Departed: 28-Nov-17 07:02 PM
Arrived: 28-Nov-17 08:32 PM
Distance/Time
Traveled:
388nm/1:30
Distance/Time
To Go:
Arrived

Flight Plot

Page will automatically refresh every two minutes.

Flight plan parsing failed; only flown route is shown


Map Options




Map Legend


Flown Route
Filed Route
Departure Airport
Arrival Airport
Navaid (VOR, NDB)
Fix

Horizontal Profiles

Position Reports

Time Latitude Longitude Heading Altitude Ground
Speed
28-Nov-17 18:27 37.612663 -122.384666 6 20ft 0kts
28-Nov-17 18:28 37.612663 -122.384666 6 20ft 0kts
28-Nov-17 18:29 37.612663 -122.384666 6 20ft 0kts
28-Nov-17 18:30 37.612663 -122.384666 6 20ft 0kts
28-Nov-17 18:31 37.612663 -122.384666 6 20ft 0kts
28-Nov-17 18:32 37.612663 -122.384666 6 20ft 0kts
28-Nov-17 18:33 37.612663 -122.384666 6 20ft 0kts
28-Nov-17 18:34 37.612663 -122.384666 6 20ft 0kts
28-Nov-17 18:35 37.612663 -122.384666 6 20ft 0kts
28-Nov-17 18:36 37.612663 -122.384666 6 20ft 0kts
28-Nov-17 18:37 37.612663 -122.384666 6 20ft 0kts
28-Nov-17 18:38 37.612663 -122.384666 6 20ft 0kts
28-Nov-17 18:39 37.612663 -122.384666 6 20ft 0kts
28-Nov-17 18:40 37.612663 -122.384666 6 20ft 0kts
28-Nov-17 18:41 37.612663 -122.384666 6 20ft 0kts
28-Nov-17 18:42 37.612663 -122.384666 6 20ft 0kts
28-Nov-17 18:43 37.612663 -122.384666 6 20ft 0kts
28-Nov-17 18:44 37.612663 -122.384666 6 20ft 0kts
28-Nov-17 18:45 37.612663 -122.384666 6 20ft 0kts
28-Nov-17 18:46 37.612663 -122.384666 6 20ft 0kts
28-Nov-17 18:47 37.612663 -122.384666 6 20ft 0kts
28-Nov-17 18:48 37.612663 -122.384666 6 20ft 0kts
28-Nov-17 18:49 37.612663 -122.384666 6 20ft 0kts
28-Nov-17 18:50 37.612663 -122.384666 6 20ft 0kts
28-Nov-17 18:51 37.612352 -122.384700 5 20ft 2kts
28-Nov-17 18:52 37.611813 -122.384765 4 20ft 2kts
28-Nov-17 18:53 37.611293 -122.384993 57 20ft 2kts
28-Nov-17 18:54 37.611222 -122.385273 75 20ft 0kts
28-Nov-17 18:55 37.611222 -122.385273 75 20ft 0kts
28-Nov-17 18:56 37.611222 -122.385273 75 20ft 0kts
28-Nov-17 18:57 37.611287 -122.384971 73 20ft 3kts
28-Nov-17 18:58 37.611390 -122.384068 109 20ft 0kts
28-Nov-17 18:59 37.611390 -122.384068 109 20ft 0kts
28-Nov-17 19:00 37.611390 -122.384068 109 20ft 0kts
28-Nov-17 19:01 37.611390 -122.384068 109 20ft 0kts
28-Nov-17 19:02 37.610990 -122.383490 169 20ft 7kts
28-Nov-17 19:03 37.609098 -122.384780 176 20ft 6kts
28-Nov-17 19:04 37.608505 -122.383955 118 20ft 0kts
28-Nov-17 19:05 37.608412 -122.383737 118 20ft 3kts
28-Nov-17 19:06 37.609910 -122.381587 25 20ft 24kts
28-Nov-17 19:07 37.634908 -122.365875 20 218ft 161kts
28-Nov-17 19:08 37.681617 -122.357654 337 1478ft 175kts
28-Nov-17 19:09 37.717245 -122.396231 281 3309ft 181kts
28-Nov-17 19:10 37.692149 -122.447990 196 4353ft 245kts
28-Nov-17 19:11 37.622051 -122.468035 194 6356ft 271kts
28-Nov-17 19:12 37.557126 -122.511105 224 8617ft 277kts
28-Nov-17 19:13 37.499174 -122.578041 224 10256ft 310kts
28-Nov-17 19:14 37.423312 -122.636952 176 11959ft 348kts
28-Nov-17 19:15 37.328834 -122.609413 177 14218ft 353kts
28-Nov-17 19:16 37.230786 -122.598026 179 16181ft 363kts
28-Nov-17 19:17 37.130004 -122.588089 180 18008ft 372kts
28-Nov-17 19:18 37.026363 -122.578016 180 19851ft 378kts
28-Nov-17 19:19 36.928229 -122.537999 134 21409ft 411kts
28-Nov-17 19:20 36.852150 -122.434658 147 22867ft 409kts
28-Nov-17 19:21 36.763131 -122.345146 147 24299ft 416kts
28-Nov-17 19:22 36.672822 -122.254196 146 25593ft 423kts
28-Nov-17 19:23 36.581483 -122.162485 146 26861ft 428kts
28-Nov-17 19:24 36.488386 -122.069298 146 28032ft 433kts
28-Nov-17 19:25 36.396102 -121.977205 147 29517ft 426kts
28-Nov-17 19:26 36.304331 -121.885951 147 30571ft 427kts
28-Nov-17 19:27 36.211884 -121.794289 147 31365ft 432kts
28-Nov-17 19:28 36.119234 -121.702669 147 32592ft 422kts
28-Nov-17 19:29 36.028266 -121.613078 147 33196ft 427kts
28-Nov-17 19:30 35.936231 -121.522653 147 33834ft 426kts
28-Nov-17 19:31 35.843845 -121.432364 147 34387ft 424kts
28-Nov-17 19:32 35.752469 -121.343207 147 34825ft 426kts
28-Nov-17 19:33 35.660520 -121.253398 147 35261ft 424kts
28-Nov-17 19:34 35.568364 -121.163961 147 35599ft 424kts
28-Nov-17 19:35 35.477448 -121.073628 135 35946ft 429kts
28-Nov-17 19:36 35.409709 -120.953094 130 36130ft 435kts
28-Nov-17 19:37 35.342852 -120.834633 130 36308ft 436kts
28-Nov-17 19:38 35.275265 -120.715455 130 36525ft 435kts
28-Nov-17 19:39 35.207138 -120.595742 129 36706ft 435kts
28-Nov-17 19:40 35.138922 -120.476289 129 36870ft 435kts
28-Nov-17 19:41 35.070271 -120.356469 129 36990ft 435kts
28-Nov-17 19:42 35.001382 -120.236321 130 37077ft 435kts
28-Nov-17 19:43 34.932740 -120.117315 130 37060ft 432kts
28-Nov-17 19:44 34.864080 -119.999055 130 37074ft 432kts
28-Nov-17 19:45 34.795185 -119.880554 130 37076ft 433kts
28-Nov-17 19:46 34.726213 -119.762178 130 37067ft 434kts
28-Nov-17 19:47 34.656922 -119.643619 129 37033ft 431kts
28-Nov-17 19:48 34.587800 -119.525789 129 37038ft 433kts
28-Nov-17 19:49 34.518403 -119.407845 129 37040ft 433kts
28-Nov-17 19:50 34.449205 -119.290394 130 37037ft 431kts
28-Nov-17 19:51 34.380367 -119.174074 130 37041ft 428kts
28-Nov-17 19:52 34.311598 -119.058385 130 37038ft 429kts
28-Nov-17 19:53 34.242347 -118.942204 130 37037ft 429kts
28-Nov-17 19:54 34.173096 -118.826440 130 37040ft 434kts
28-Nov-17 19:55 34.114634 -118.728956 130 37052ft 433kts
28-Nov-17 19:56 34.035067 -118.596714 130 36255ft 429kts
28-Nov-17 19:57 33.978488 -118.503004 130 34873ft 424kts
28-Nov-17 19:58 33.907197 -118.396015 138 32927ft 413kts
28-Nov-17 19:59 33.834465 -118.304152 136 31060ft 411kts
28-Nov-17 20:00 33.747545 -118.191216 136 29097ft 417kts
28-Nov-17 20:01 33.683857 -118.107515 135 27663ft 425kts
28-Nov-17 20:02 33.608342 -118.008497 134 25969ft 425kts
28-Nov-17 20:03 33.523818 -117.901794 136 24026ft 397kts
28-Nov-17 20:04 33.460446 -117.828546 137 22566ft 385kts
28-Nov-17 20:05 33.386837 -117.740042 135 20786ft 375kts
28-Nov-17 20:06 33.317559 -117.655630 135 19046ft 363kts
28-Nov-17 20:07 33.247261 -117.575583 146 17304ft 355kts
28-Nov-17 20:08 33.170216 -117.511363 146 15577ft 348kts
28-Nov-17 20:09 33.094243 -117.447864 147 13826ft 337kts
28-Nov-17 20:10 33.025024 -117.389966 147 12454ft 295kts
28-Nov-17 20:11 32.966724 -117.341035 147 11484ft 267kts
28-Nov-17 20:12 32.909340 -117.292823 147 10626ft 263kts
28-Nov-17 20:13 32.853507 -117.246573 147 9744ft 259kts
28-Nov-17 20:14 32.807982 -117.194160 109 8766ft 241kts
28-Nov-17 20:15 32.791774 -117.121316 108 7835ft 239kts
28-Nov-17 20:16 32.774427 -117.048216 108 6488ft 236kts
28-Nov-17 20:17 32.756749 -116.976302 108 5035ft 232kts
28-Nov-17 20:18 32.729036 -116.915052 166 3581ft 220kts
28-Nov-17 20:19 32.695902 -116.951656 258 2646ft 176kts
28-Nov-17 20:20 32.691696 -117.004460 270 2720ft 161kts
28-Nov-17 20:21 32.701357 -117.054805 284 2161ft 153kts
28-Nov-17 20:22 32.711632 -117.101605 287 1921ft 150kts
28-Nov-17 20:23 32.723801 -117.148908 287 1198ft 154kts
28-Nov-17 20:24 32.736918 -117.204207 286 607ft 180kts
28-Nov-17 20:25 32.752290 -117.262191 287 1582ft 186kts
28-Nov-17 20:26 32.770105 -117.318231 318 2304ft 187kts
28-Nov-17 20:27 32.806061 -117.292333 84 2393ft 208kts
28-Nov-17 20:28 32.802083 -117.225981 96 2481ft 206kts
28-Nov-17 20:29 32.797631 -117.160336 104 2622ft 203kts
28-Nov-17 20:30 32.778960 -117.097119 110 2451ft 202kts
28-Nov-17 20:31 32.758368 -117.035815 112 2474ft 201kts
28-Nov-17 20:32 32.727815 -116.993255 192 2129ft 188kts
28-Nov-17 20:33 32.707498 -117.041433 271 1832ft 181kts
28-Nov-17 20:34 32.710228 -117.100937 280 1659ft 188kts
28-Nov-17 20:35 32.725848 -117.159328 287 640ft 182kts
28-Nov-17 20:36 32.736136 -117.200440 286 24ft 49kts
28-Nov-17 20:37 32.735651 -117.202538 105 24ft 14kts
28-Nov-17 20:38 32.734433 -117.197472 106 24ft 6kts
28-Nov-17 20:39 32.733243 -117.196880 147 24ft 2kts
28-Nov-17 20:40 32.733161 -117.196818 147 24ft 0kts

Navigation Log

Ident Type
Flight plan parsing failed, navigation log unavailable